createdAt,value
2019-05-22T00:00:15.371Z,65.6
2019-05-22T00:03:15.682Z,66.4
2019-05-22T00:06:15.462Z,66.6
2019-05-22T00:09:15.183Z,66.7
2019-05-22T00:12:15.288Z,66.5
2019-05-22T00:15:15.096Z,66.9
2019-05-22T00:18:15.627Z,67.1
2019-05-22T00:21:15.157Z,66.3
2019-05-22T00:24:15.732Z,67.1
2019-05-22T00:27:15.050Z,66.5
2019-05-22T00:30:15.675Z,66.4
2019-05-22T00:33:15.043Z,65.9
2019-05-22T00:36:15.030Z,66.6
2019-05-22T00:39:15.184Z,66.3
2019-05-22T00:42:15.263Z,66.9
2019-05-22T00:45:15.620Z,66.5
2019-05-22T00:48:15.064Z,66.5
2019-05-22T00:51:15.068Z,67.3
2019-05-22T00:54:15.603Z,66.9
2019-05-22T00:57:15.730Z,67.4
2019-05-22T01:00:15.434Z,66.8
2019-05-22T01:03:15.290Z,67.7
2019-05-22T01:06:15.617Z,67.5
2019-05-22T01:09:15.373Z,67.6
2019-05-22T01:12:15.374Z,66.7
2019-05-22T01:15:15.623Z,67.4
2019-05-22T01:18:15.236Z,66.0
2019-05-22T01:21:15.102Z,67.2
2019-05-22T01:24:15.622Z,67.2
2019-05-22T01:27:15.074Z,66.8
2019-05-22T01:30:14.949Z,67.3
2019-05-22T01:33:15.527Z,67.9
2019-05-22T01:36:15.098Z,67.6
2019-05-22T01:39:15.113Z,68.3
2019-05-22T01:42:15.832Z,67.8
2019-05-22T01:45:15.173Z,69.2
2019-05-22T01:48:15.171Z,68.0
2019-05-22T01:51:15.770Z,68.8
2019-05-22T01:54:14.943Z,68.8
2019-05-22T01:57:15.045Z,69.1
2019-05-22T02:00:15.379Z,68.8
2019-05-22T02:03:15.593Z,69.4
2019-05-22T02:06:14.832Z,69.4
2019-05-22T02:09:15.047Z,69.2
2019-05-22T02:12:15.156Z,70.2
2019-05-22T02:15:15.519Z,70.7
2019-05-22T02:18:15.077Z,70.4
2019-05-22T02:21:15.415Z,70.4
2019-05-22T02:24:14.840Z,71.4
2019-05-22T02:27:15.371Z,71.7
2019-05-22T02:30:15.203Z,70.8
2019-05-22T02:33:15.685Z,70.1
2019-05-22T02:36:15.374Z,70.8
2019-05-22T02:39:14.929Z,71.0
2019-05-22T02:42:15.765Z,70.7
2019-05-22T02:45:14.843Z,70.6
2019-05-22T02:48:15.390Z,70.2
2019-05-22T02:51:15.783Z,71.1
2019-05-22T02:54:15.277Z,71.2
2019-05-22T02:57:15.844Z,71.0
2019-05-22T03:00:15.728Z,69.8
2019-05-22T03:03:14.901Z,70.4
2019-05-22T03:06:15.026Z,70.0
2019-05-22T03:09:14.858Z,70.0
2019-05-22T03:12:15.334Z,70.5
2019-05-22T03:15:15.652Z,70.1
2019-05-22T03:18:15.060Z,70.5
2019-05-22T03:21:15.587Z,70.5
2019-05-22T03:24:14.980Z,70.5
2019-05-22T03:27:15.848Z,70.0
2019-05-22T03:30:15.541Z,69.8
2019-05-22T03:33:15.433Z,69.8
2019-05-22T03:36:14.959Z,70.0
2019-05-22T03:39:15.360Z,70.2
2019-05-22T03:42:15.263Z,69.1
2019-05-22T03:45:15.126Z,69.6
2019-05-22T03:48:15.321Z,69.8
2019-05-22T03:51:15.552Z,68.9
2019-05-22T03:54:15.251Z,69.8
2019-05-22T03:57:15.867Z,70.1
2019-05-22T04:00:15.287Z,69.0
2019-05-22T04:03:15.052Z,68.9
2019-05-22T04:06:15.275Z,69.4
2019-05-22T04:09:14.930Z,69.0
2019-05-22T04:12:15.821Z,69.3
2019-05-22T04:15:15.437Z,69.7
2019-05-22T04:18:15.341Z,69.7
2019-05-22T04:21:15.253Z,69.5
2019-05-22T04:24:15.308Z,69.2
2019-05-22T04:27:15.317Z,69.2
2019-05-22T04:30:15.630Z,70.0
2019-05-22T04:33:15.254Z,69.5
2019-05-22T04:36:15.458Z,69.6
2019-05-22T04:39:15.275Z,68.9
2019-05-22T04:42:15.793Z,69.1
2019-05-22T04:45:15.240Z,68.7
2019-05-22T04:48:15.633Z,69.0
2019-05-22T04:51:15.577Z,69.1
2019-05-22T04:54:15.555Z,68.7
2019-05-22T04:57:15.446Z,68.5
2019-05-22T05:00:15.362Z,68.7
2019-05-22T05:03:15.417Z,67.8
2019-05-22T05:06:15.963Z,68.2
2019-05-22T05:09:15.497Z,68.0
2019-05-22T05:12:15.491Z,68.1
2019-05-22T05:15:15.339Z,67.9
2019-05-22T05:18:14.995Z,67.8
2019-05-22T05:21:15.459Z,67.6
2019-05-22T05:24:15.289Z,67.5
2019-05-22T05:27:15.828Z,68.0
2019-05-22T05:30:15.095Z,67.5
2019-05-22T05:33:15.643Z,68.2
2019-05-22T05:36:15.767Z,68.4
2019-05-22T05:39:15.184Z,68.8
2019-05-22T05:42:15.015Z,68.7
2019-05-22T05:45:15.495Z,68.9
2019-05-22T05:48:15.799Z,69.3
2019-05-22T05:51:15.286Z,68.6
2019-05-22T05:54:15.022Z,68.4
2019-05-22T05:57:15.245Z,68.6
2019-05-22T06:00:15.037Z,68.4
2019-05-22T06:03:15.871Z,68.0
2019-05-22T06:06:15.546Z,67.2
2019-05-22T06:09:15.312Z,67.3
2019-05-22T06:12:15.546Z,67.0
2019-05-22T06:15:15.492Z,66.0
2019-05-22T06:18:15.541Z,65.5
2019-05-22T06:21:15.057Z,65.6
2019-05-22T06:24:15.734Z,65.3
2019-05-22T06:27:15.295Z,65.9
2019-05-22T06:30:15.575Z,65.5
2019-05-22T06:33:15.276Z,65.4
2019-05-22T06:36:14.967Z,65.5
2019-05-22T06:39:15.092Z,64.9
2019-05-22T06:42:15.096Z,64.0
2019-05-22T06:45:15.899Z,64.4
2019-05-22T06:48:15.582Z,64.0
2019-05-22T06:51:19.433Z,63.7
2019-05-22T06:54:15.443Z,63.0
2019-05-22T06:57:15.021Z,63.1
2019-05-22T07:00:15.790Z,62.2
2019-05-22T07:03:14.977Z,62.0
2019-05-22T07:06:15.719Z,59.8
2019-05-22T07:09:15.287Z,59.8
2019-05-22T07:12:15.699Z,60.8
2019-05-22T07:15:15.136Z,59.4
2019-05-22T07:18:15.526Z,59.1
2019-05-22T07:21:15.266Z,59.5
2019-05-22T07:24:15.745Z,58.1
2019-05-22T07:27:15.111Z,57.6
2019-05-22T07:30:15.435Z,58.4
2019-05-22T07:33:15.772Z,57.9
2019-05-22T07:36:16.965Z,57.7
2019-05-22T07:39:14.956Z,58.5
2019-05-22T07:42:15.824Z,58.0
2019-05-22T07:45:15.642Z,57.0
2019-05-22T07:48:15.581Z,57.4
2019-05-22T07:51:15.568Z,57.4
2019-05-22T07:54:15.226Z,56.8
2019-05-22T07:57:15.780Z,57.4
2019-05-22T08:00:15.058Z,56.4
2019-05-22T08:03:15.659Z,56.3
2019-05-22T08:06:15.203Z,57.3
2019-05-22T08:09:15.084Z,56.2
2019-05-22T08:12:15.081Z,55.9
2019-05-22T08:15:15.567Z,56.6
2019-05-22T08:18:15.360Z,56.3
2019-05-22T08:21:15.757Z,56.0
2019-05-22T08:24:15.676Z,57.3
2019-05-22T08:27:15.190Z,57.2
2019-05-22T08:30:15.785Z,58.3
2019-05-22T08:33:15.401Z,57.0
2019-05-22T08:36:15.279Z,55.7
2019-05-22T08:39:15.202Z,56.7
2019-05-22T08:42:15.513Z,57.4
2019-05-22T08:45:15.837Z,57.0
2019-05-22T08:48:15.617Z,56.3
2019-05-22T08:51:15.495Z,56.2
2019-05-22T08:54:15.095Z,55.2
2019-05-22T08:57:15.182Z,55.0
2019-05-22T09:00:15.610Z,53.8
2019-05-22T09:03:15.405Z,54.2
2019-05-22T09:06:15.124Z,52.6
2019-05-22T09:09:15.403Z,53.2
2019-05-22T09:12:15.660Z,53.3
2019-05-22T09:15:15.742Z,52.3
2019-05-22T09:18:15.071Z,52.2
2019-05-22T09:21:15.434Z,51.8
2019-05-22T09:24:15.530Z,52.7
2019-05-22T09:27:15.005Z,51.1
2019-05-22T09:30:15.780Z,52.4
2019-05-22T09:33:15.369Z,50.3
2019-05-22T09:36:15.552Z,51.8
2019-05-22T09:39:15.220Z,50.9
2019-05-22T09:42:15.737Z,51.4
2019-05-22T09:45:15.561Z,49.9
2019-05-22T09:48:15.293Z,49.7
2019-05-22T09:51:15.802Z,49.8
2019-05-22T09:54:15.416Z,48.6
2019-05-22T09:57:14.877Z,48.3
2019-05-22T10:00:15.513Z,48.5
2019-05-22T10:03:15.409Z,47.9
2019-05-22T10:06:15.813Z,46.6
2019-05-22T10:09:15.421Z,46.7
2019-05-22T10:12:15.468Z,46.6
2019-05-22T10:15:16.329Z,43.4
2019-05-22T10:18:15.675Z,42.2
2019-05-22T10:21:15.406Z,44.5
2019-05-22T10:24:14.962Z,42.3
2019-05-22T10:27:15.041Z,39.4
2019-05-22T10:30:15.171Z,39.3
2019-05-22T10:33:15.010Z,39.1
2019-05-22T10:36:15.319Z,39.7
2019-05-22T10:39:15.241Z,39.9
2019-05-22T10:42:15.091Z,37.3
2019-05-22T10:45:15.280Z,39.1
2019-05-22T10:48:15.529Z,36.8
2019-05-22T10:51:15.783Z,37.0
2019-05-22T10:54:15.425Z,36.5
2019-05-22T10:57:14.996Z,35.9
2019-05-22T11:00:14.921Z,30.5
2019-05-22T11:03:15.475Z,31.8
2019-05-22T11:06:15.165Z,32.0
2019-05-22T11:09:15.882Z,32.1
2019-05-22T11:12:15.177Z,30.9
2019-05-22T11:15:15.239Z,30.7
2019-05-22T11:18:15.450Z,29.8
2019-05-22T11:21:15.863Z,29.5
2019-05-22T11:24:15.940Z,30.2
2019-05-22T11:27:15.949Z,31.4
2019-05-22T11:30:15.646Z,31.1
2019-05-22T11:33:15.451Z,30.9
2019-05-22T11:36:15.819Z,30.0
2019-05-22T11:39:15.209Z,31.0
2019-05-22T11:42:15.393Z,31.1
2019-05-22T11:45:15.333Z,32.2
2019-05-22T11:48:15.329Z,31.7
2019-05-22T11:51:15.089Z,32.3
2019-05-22T11:54:15.858Z,30.8
2019-05-22T11:57:15.626Z,31.6
2019-05-22T12:00:15.292Z,30.9
2019-05-22T12:03:15.592Z,31.7
2019-05-22T12:06:15.663Z,32.7
2019-05-22T12:09:15.542Z,32.8
2019-05-22T12:12:14.939Z,32.7
2019-05-22T12:15:15.635Z,33.2
2019-05-22T12:18:15.386Z,32.9
2019-05-22T12:21:15.600Z,32.4
2019-05-22T12:24:27.190Z,32.8
2019-05-22T12:27:15.223Z,32.4
2019-05-22T12:30:15.073Z,31.7
2019-05-22T12:33:15.949Z,32.4
2019-05-22T12:36:15.875Z,31.8
2019-05-22T12:39:15.882Z,32.7
2019-05-22T12:42:15.353Z,32.2
2019-05-22T12:45:15.460Z,32.7
2019-05-22T12:48:15.679Z,32.1
2019-05-22T12:51:15.396Z,32.6
2019-05-22T12:54:15.365Z,33.4
2019-05-22T12:57:15.441Z,34.1
2019-05-22T13:00:15.570Z,33.9
2019-05-22T13:03:15.497Z,34.3
2019-05-22T13:06:15.326Z,34.6
2019-05-22T13:09:15.029Z,34.9
2019-05-22T13:12:14.933Z,34.1
2019-05-22T13:15:15.880Z,34.3
2019-05-22T13:18:15.686Z,34.4
2019-05-22T13:21:15.884Z,33.6
2019-05-22T13:24:14.923Z,33.6
2019-05-22T13:27:15.468Z,33.4
2019-05-22T13:30:15.343Z,33.0
2019-05-22T13:33:15.501Z,33.1
2019-05-22T13:36:15.134Z,32.8
2019-05-22T13:39:15.345Z,33.4
2019-05-22T13:42:15.324Z,33.5
2019-05-22T13:45:28.833Z,33.5
2019-05-22T13:48:15.929Z,33.1
2019-05-22T13:51:15.441Z,32.8
2019-05-22T13:54:15.407Z,33.1
2019-05-22T13:57:15.154Z,33.7
2019-05-22T14:00:15.706Z,33.8
2019-05-22T14:03:15.358Z,33.8
2019-05-22T14:06:15.401Z,34.0
2019-05-22T14:09:20.397Z,33.1
2019-05-22T14:12:14.947Z,33.3
2019-05-22T14:15:15.526Z,34.2
2019-05-22T14:18:15.616Z,33.8
2019-05-22T14:21:15.453Z,34.0
2019-05-22T14:24:15.356Z,33.9
2019-05-22T14:27:15.241Z,33.8
2019-05-22T14:30:15.154Z,34.0
2019-05-22T14:33:15.481Z,34.1
2019-05-22T14:36:15.570Z,34.2
2019-05-22T14:39:14.937Z,34.4
2019-05-22T14:42:15.593Z,34.0
2019-05-22T14:45:14.995Z,34.5
2019-05-22T14:48:15.810Z,34.3
2019-05-22T14:51:15.910Z,33.9
2019-05-22T14:54:15.900Z,34.1
2019-05-22T14:57:15.407Z,34.3
2019-05-22T15:00:15.569Z,34.5
2019-05-22T15:03:15.237Z,33.2
2019-05-22T15:06:15.039Z,33.6
2019-05-22T15:09:15.008Z,33.6
2019-05-22T15:12:15.871Z,33.5
2019-05-22T15:15:14.964Z,34.3
2019-05-22T15:18:15.552Z,34.2
2019-05-22T15:21:15.471Z,33.5
2019-05-22T15:24:15.875Z,34.2
2019-05-22T15:27:15.592Z,34.5
2019-05-22T15:30:15.686Z,34.8
2019-05-22T15:33:14.872Z,34.7
2019-05-22T15:36:15.846Z,34.8
2019-05-22T15:39:16.026Z,34.9
2019-05-22T15:42:14.904Z,35.2
2019-05-22T15:45:15.694Z,35.1
2019-05-22T15:48:15.792Z,35.0
2019-05-22T15:51:15.394Z,34.9
2019-05-22T15:54:15.749Z,34.9
2019-05-22T15:57:15.217Z,35.2
2019-05-22T16:00:15.684Z,35.1
2019-05-22T16:03:15.288Z,35.6
2019-05-22T16:06:15.145Z,35.3
2019-05-22T16:09:15.247Z,35.3
2019-05-22T16:12:15.364Z,34.9
2019-05-22T16:15:15.580Z,34.4
2019-05-22T16:18:15.383Z,34.6
2019-05-22T16:21:15.141Z,35.1
2019-05-22T16:24:15.454Z,34.7
2019-05-22T16:27:15.854Z,34.2
2019-05-22T16:30:15.018Z,34.4
2019-05-22T16:33:15.358Z,34.8
2019-05-22T16:36:15.591Z,35.0
2019-05-22T16:39:15.125Z,35.8
2019-05-22T16:42:15.270Z,35.6
2019-05-22T16:45:15.148Z,35.8
2019-05-22T16:48:28.427Z,35.8
2019-05-22T16:51:15.455Z,36.3
2019-05-22T16:54:20.293Z,36.4
2019-05-22T16:57:15.062Z,36.0
2019-05-22T17:00:15.704Z,36.5
2019-05-22T17:03:15.648Z,36.5
2019-05-22T17:06:15.822Z,36.7
2019-05-22T17:09:15.568Z,36.9
2019-05-22T17:12:15.545Z,36.9
2019-05-22T17:15:15.010Z,36.9
2019-05-22T17:18:15.123Z,37.1
2019-05-22T17:21:15.738Z,37.4
2019-05-22T17:24:15.824Z,37.4
2019-05-22T17:27:15.739Z,37.2
2019-05-22T17:30:20.519Z,37.4
2019-05-22T17:33:15.246Z,37.7
2019-05-22T17:36:15.670Z,37.8
2019-05-22T17:39:15.471Z,37.8
2019-05-22T17:42:15.292Z,38.2
2019-05-22T17:45:15.704Z,38.4
2019-05-22T17:48:15.526Z,38.4
2019-05-22T17:51:15.821Z,38.1
2019-05-22T17:54:15.014Z,38.2
2019-05-22T17:57:15.545Z,38.3
2019-05-22T18:00:15.759Z,38.5
2019-05-22T18:03:15.283Z,38.8
2019-05-22T18:06:15.587Z,39.0
2019-05-22T18:09:15.567Z,39.5
2019-05-22T18:12:15.762Z,39.1
2019-05-22T18:15:15.258Z,39.3
2019-05-22T18:18:15.100Z,39.2
2019-05-22T18:21:15.831Z,39.4
2019-05-22T18:24:14.899Z,39.1
2019-05-22T18:30:15.669Z,39.7
2019-05-22T18:33:15.242Z,39.7
2019-05-22T18:36:15.884Z,40.2
2019-05-22T18:39:15.564Z,40.2
2019-05-22T18:42:15.855Z,40.5
2019-05-22T18:45:15.044Z,40.5
2019-05-22T18:48:15.497Z,40.9
2019-05-22T18:51:15.501Z,41.4
2019-05-22T18:54:14.887Z,41.7
2019-05-22T18:57:15.581Z,42.0
2019-05-22T19:00:15.162Z,42.1
2019-05-22T19:03:20.524Z,42.5
2019-05-22T19:06:15.263Z,42.9
2019-05-22T19:09:15.349Z,42.9
2019-05-22T19:12:15.170Z,43.1
2019-05-22T19:15:15.848Z,43.4
2019-05-22T19:18:15.033Z,43.7
2019-05-22T19:21:15.865Z,43.8
2019-05-22T19:24:15.603Z,44.0
2019-05-22T19:27:15.334Z,43.9
2019-05-22T19:30:15.919Z,44.7
2019-05-22T19:33:15.623Z,45.4
2019-05-22T19:36:15.527Z,46.2
2019-05-22T19:39:15.241Z,46.1
2019-05-22T19:42:15.051Z,47.0
2019-05-22T19:45:15.804Z,47.8
2019-05-22T19:48:15.762Z,47.3
2019-05-22T19:51:15.485Z,48.0
2019-05-22T19:54:15.335Z,48.4
2019-05-22T19:57:15.157Z,47.9
2019-05-22T20:00:14.915Z,48.9
2019-05-22T20:03:15.214Z,47.9
2019-05-22T20:06:15.817Z,50.1
2019-05-22T20:09:15.484Z,50.0
2019-05-22T20:12:15.843Z,49.6
2019-05-22T20:15:15.126Z,49.6
2019-05-22T20:18:15.146Z,50.2
2019-05-22T20:21:15.127Z,49.8
2019-05-22T20:24:15.389Z,50.7
2019-05-22T20:27:15.703Z,50.5
2019-05-22T20:30:15.501Z,51.2
2019-05-22T20:33:15.753Z,52.8
2019-05-22T20:36:15.275Z,52.2
2019-05-22T20:39:15.385Z,52.6
2019-05-22T20:42:15.458Z,52.4
2019-05-22T20:45:15.514Z,53.3
2019-05-22T20:48:14.902Z,54.0
2019-05-22T20:51:14.991Z,52.8
2019-05-22T20:54:15.435Z,53.9
2019-05-22T20:57:15.221Z,53.7
2019-05-22T21:00:14.912Z,53.3
2019-05-22T21:03:15.010Z,54.2
2019-05-22T21:06:15.863Z,53.8
2019-05-22T21:09:15.586Z,53.7
2019-05-22T21:12:14.953Z,53.9
2019-05-22T21:15:15.777Z,53.4
2019-05-22T21:18:15.063Z,53.5
2019-05-22T21:21:15.544Z,53.0
2019-05-22T21:24:15.611Z,53.1
2019-05-22T21:27:15.484Z,52.8
2019-05-22T21:30:15.212Z,52.9
2019-05-22T21:33:15.315Z,52.8
2019-05-22T21:36:15.763Z,52.9
2019-05-22T21:39:15.833Z,53.0
2019-05-22T21:42:15.053Z,53.6
2019-05-22T21:45:15.738Z,53.6
2019-05-22T21:48:15.668Z,53.4
2019-05-22T21:51:15.727Z,54.5
2019-05-22T21:54:15.494Z,54.4
2019-05-22T21:57:15.698Z,54.0
2019-05-22T22:00:15.510Z,54.6
2019-05-22T22:03:15.337Z,54.3
2019-05-22T22:06:15.434Z,55.2
2019-05-22T22:09:15.775Z,56.6
2019-05-22T22:12:15.870Z,57.1
2019-05-22T22:15:14.992Z,56.8
2019-05-22T22:18:14.949Z,56.4
2019-05-22T22:21:15.410Z,56.6
2019-05-22T22:24:15.486Z,56.5
2019-05-22T22:27:15.565Z,55.7
2019-05-22T22:30:15.430Z,56.2
2019-05-22T22:33:15.478Z,56.8
2019-05-22T22:36:15.789Z,57.2
2019-05-22T22:39:14.974Z,57.2
2019-05-22T22:42:15.422Z,57.5
2019-05-22T22:45:15.452Z,57.9
2019-05-22T22:48:15.051Z,58.3
2019-05-22T22:51:15.116Z,57.7
2019-05-22T22:54:15.792Z,58.3
2019-05-22T22:57:15.442Z,58.3
2019-05-22T23:00:15.183Z,60.3
2019-05-22T23:03:15.029Z,60.6
2019-05-22T23:06:15.327Z,61.1
2019-05-22T23:09:15.694Z,60.6
2019-05-22T23:12:14.982Z,61.0
2019-05-22T23:15:18.227Z,61.9
2019-05-22T23:18:15.056Z,61.5
2019-05-22T23:21:15.502Z,61.7
2019-05-22T23:24:15.264Z,61.2
2019-05-22T23:27:15.042Z,62.1
2019-05-22T23:30:15.251Z,61.8
2019-05-22T23:33:15.714Z,60.7
2019-05-22T23:36:15.558Z,61.6
2019-05-22T23:39:15.787Z,60.9
2019-05-22T23:42:15.438Z,61.7
2019-05-22T23:45:15.779Z,62.5
2019-05-22T23:48:15.701Z,62.3
2019-05-22T23:51:15.267Z,62.2
2019-05-22T23:54:15.429Z,61.9
2019-05-22T23:57:15.576Z,60.5
